createdAt,value
2022-10-11T00:00:40.881Z,66.02
2022-10-11T00:01:40.988Z,62.34
2022-10-11T00:02:40.869Z,63.24
2022-10-11T00:03:40.837Z,64.44
2022-10-11T00:04:40.905Z,63.29
2022-10-11T00:05:40.806Z,63.26
2022-10-11T00:06:40.857Z,63.89
2022-10-11T00:07:40.783Z,64.28
2022-10-11T00:08:40.753Z,63.04
2022-10-11T00:09:40.772Z,65.91
2022-10-11T00:10:40.741Z,64.40
2022-10-11T00:11:41.715Z,65.88
2022-10-11T00:12:40.695Z,61.36
2022-10-11T00:13:40.683Z,63.04
2022-10-11T00:14:40.805Z,61.27
2022-10-11T00:15:40.651Z,63.22
2022-10-11T00:16:40.620Z,64.91
2022-10-11T00:17:40.681Z,62.43
2022-10-11T00:18:40.627Z,64.03
2022-10-11T00:19:40.596Z,61.76
2022-10-11T00:20:40.553Z,62.74
2022-10-11T00:21:40.541Z,61.96
2022-10-11T00:22:40.529Z,61.79
2022-10-11T00:23:40.505Z,60.97
2022-10-11T00:24:40.630Z,65.12
2022-10-11T00:25:40.544Z,64.78
2022-10-11T00:26:45.734Z,64.33
2022-10-11T00:27:42.470Z,64.67
2022-10-11T00:28:40.627Z,59.85
2022-10-11T00:29:40.440Z,62.96
2022-10-11T00:30:40.390Z,62.60
2022-10-11T00:31:40.376Z,61.98
2022-10-11T00:32:40.366Z,60.94
2022-10-11T00:33:40.322Z,61.11
2022-10-11T00:34:40.475Z,63.88
2022-10-11T00:35:40.294Z,61.65
2022-10-11T00:36:40.325Z,64.27
2022-10-11T00:37:40.260Z,65.43
2022-10-11T00:38:40.260Z,67.10
2022-10-11T00:39:40.314Z,65.71
2022-10-11T00:40:40.190Z,65.81
2022-10-11T00:41:40.172Z,65.06
2022-10-11T00:42:40.194Z,63.72
2022-10-11T00:43:40.197Z,65.18
2022-10-11T00:44:40.232Z,62.84
2022-10-11T00:45:40.142Z,65.61
2022-10-11T00:46:40.105Z,64.69
2022-10-11T00:47:40.077Z,60.70
2022-10-11T00:48:40.082Z,64.92
2022-10-11T00:49:40.082Z,61.32
2022-10-11T00:50:40.090Z,61.65
2022-10-11T00:51:40.032Z,64.12
2022-10-11T00:52:40.006Z,64.38
2022-10-11T00:53:39.980Z,64.00
2022-10-11T00:54:40.103Z,63.38
2022-10-11T00:55:39.990Z,61.39
2022-10-11T00:56:39.932Z,65.53
2022-10-11T00:57:39.930Z,63.87
2022-10-11T00:58:39.909Z,61.31
2022-10-11T00:59:39.911Z,64.96
2022-10-11T01:00:39.868Z,61.22
2022-10-11T01:01:39.911Z,63.66
2022-10-11T01:02:39.823Z,63.00
2022-10-11T01:03:39.836Z,63.17
2022-10-11T01:04:39.865Z,65.03
2022-10-11T01:05:39.789Z,63.48
2022-10-11T01:06:39.752Z,63.24
2022-10-11T01:07:39.746Z,64.14
2022-10-11T01:08:39.729Z,62.56
2022-10-11T01:09:39.763Z,63.02
2022-10-11T01:10:39.724Z,61.50
2022-10-11T01:11:39.751Z,63.66
2022-10-11T01:12:39.756Z,63.22
2022-10-11T01:13:40.636Z,64.84
2022-10-11T01:14:39.672Z,61.68
2022-10-11T01:15:39.598Z,61.98
2022-10-11T01:16:39.601Z,65.46
2022-10-11T01:17:39.571Z,62.43
2022-10-11T01:18:39.563Z,63.12
2022-10-11T01:19:39.579Z,59.21
2022-10-11T01:20:39.555Z,62.46
2022-10-11T01:21:39.529Z,64.70
2022-10-11T01:22:39.502Z,62.27
2022-10-11T01:23:39.609Z,63.67
2022-10-11T01:24:39.587Z,63.94
2022-10-11T01:25:39.515Z,64.48
2022-10-11T01:26:39.418Z,64.38
2022-10-11T01:27:39.434Z,62.30
2022-10-11T01:28:39.447Z,62.57
2022-10-11T01:29:39.419Z,65.34
2022-10-11T01:30:39.383Z,64.79
2022-10-11T01:31:39.343Z,63.63
2022-10-11T01:32:39.306Z,62.92
2022-10-11T01:33:39.318Z,64.57
2022-10-11T01:34:39.381Z,63.82
2022-10-11T01:35:39.315Z,63.85
2022-10-11T01:36:39.274Z,62.39
2022-10-11T01:37:39.240Z,64.51
2022-10-11T01:38:39.245Z,65.42
2022-10-11T01:39:39.189Z,64.75
2022-10-11T01:40:39.232Z,62.37
2022-10-11T01:41:39.165Z,61.35
2022-10-11T01:42:39.151Z,64.24
2022-10-11T01:43:39.108Z,63.53
2022-10-11T01:44:39.157Z,63.52
2022-10-11T01:45:39.315Z,66.70
2022-10-11T01:46:39.102Z,63.81
2022-10-11T01:47:39.055Z,66.06
2022-10-11T01:48:39.043Z,65.94
2022-10-11T01:49:39.007Z,63.76
2022-10-11T01:50:39.031Z,63.98
2022-10-11T01:51:38.981Z,65.73
2022-10-11T01:52:38.975Z,65.56
2022-10-11T01:53:39.932Z,61.44
2022-10-11T01:55:07.684Z,64.59
2022-10-11T01:55:40.948Z,63.80
2022-10-11T01:56:38.938Z,62.04
2022-10-11T01:57:38.880Z,66.79
2022-10-11T01:58:38.888Z,62.64
2022-10-11T01:59:38.873Z,66.36
2022-10-11T02:00:38.871Z,65.11
2022-10-11T02:01:39.872Z,64.06
2022-10-11T02:02:38.796Z,66.11
2022-10-11T02:03:38.784Z,63.47
2022-10-11T02:04:38.805Z,62.82
2022-10-11T02:05:38.787Z,65.06
2022-10-11T02:06:38.734Z,65.52
2022-10-11T02:07:38.800Z,66.03
2022-10-11T02:08:38.694Z,65.60
2022-10-11T02:09:38.693Z,64.81
2022-10-11T02:10:38.693Z,64.07
2022-10-11T02:11:38.654Z,65.45
2022-10-11T02:12:38.667Z,64.74
2022-10-11T02:13:38.614Z,65.21
2022-10-11T02:14:38.650Z,65.99
2022-10-11T02:15:38.614Z,65.26
2022-10-11T02:16:38.545Z,65.83
2022-10-11T02:17:38.565Z,64.90
2022-10-11T02:18:38.629Z,64.43
2022-10-11T02:19:38.496Z,64.25
2022-10-11T02:20:38.508Z,63.33
2022-10-11T02:21:38.474Z,66.03
2022-10-11T02:22:38.483Z,65.17
2022-10-11T02:23:38.450Z,64.67
2022-10-11T02:24:38.448Z,62.90
2022-10-11T02:25:38.441Z,63.84
2022-10-11T02:26:38.388Z,64.92
2022-10-11T02:27:38.367Z,64.89
2022-10-11T02:28:38.404Z,65.21
2022-10-11T02:29:38.366Z,62.99
2022-10-11T02:30:38.362Z,65.14
2022-10-11T02:31:38.308Z,62.53
2022-10-11T02:32:38.275Z,66.96
2022-10-11T02:33:38.286Z,65.89
2022-10-11T02:34:38.235Z,62.38
2022-10-11T02:35:38.259Z,61.35
2022-10-11T02:36:38.213Z,65.65
2022-10-11T02:37:38.199Z,66.19
2022-10-11T02:38:38.177Z,65.99
2022-10-11T02:39:38.174Z,66.00
2022-10-11T02:40:38.272Z,62.33
2022-10-11T02:41:38.137Z,63.93
2022-10-11T02:42:38.113Z,63.89
2022-10-11T02:43:38.105Z,65.53
2022-10-11T02:44:38.100Z,65.66
2022-10-11T02:45:38.107Z,65.70
2022-10-11T02:46:38.068Z,65.48
2022-10-11T02:47:38.035Z,64.50
2022-10-11T02:48:38.022Z,65.82
2022-10-11T02:49:37.992Z,66.48
2022-10-11T02:50:38.003Z,66.62
2022-10-11T02:51:38.058Z,64.50
2022-10-11T02:52:37.951Z,61.91
2022-10-11T02:53:37.927Z,65.58
2022-10-11T02:54:37.912Z,61.72
2022-10-11T02:55:37.940Z,65.22
2022-10-11T02:56:37.888Z,62.53
2022-10-11T02:57:37.883Z,65.80
2022-10-11T02:58:37.866Z,64.62
2022-10-11T02:59:37.898Z,67.00
2022-10-11T03:00:37.836Z,66.77
2022-10-11T03:01:37.877Z,65.34
2022-10-11T03:02:37.773Z,65.85
2022-10-11T03:03:37.780Z,63.32
2022-10-11T03:04:37.759Z,65.01
2022-10-11T03:05:37.783Z,66.30
2022-10-11T03:06:37.724Z,66.30
2022-10-11T03:07:37.703Z,65.60
2022-10-11T03:08:37.701Z,65.71
2022-10-11T03:09:37.659Z,66.76
2022-10-11T03:10:37.675Z,67.07
2022-10-11T03:11:37.623Z,63.61
2022-10-11T03:12:37.592Z,64.44
2022-10-11T03:13:37.599Z,62.84
2022-10-11T03:14:37.559Z,63.47
2022-10-11T03:15:37.571Z,65.10
2022-10-11T03:16:37.530Z,65.50
2022-10-11T03:17:37.777Z,65.35
2022-10-11T03:18:37.492Z,68.67
2022-10-11T03:19:37.479Z,64.43
2022-10-11T03:20:37.509Z,64.24
2022-10-11T03:21:37.441Z,66.35
2022-10-11T03:22:37.425Z,66.66
2022-10-11T03:23:37.411Z,65.10
2022-10-11T03:24:37.391Z,64.35
2022-10-11T03:25:37.466Z,67.21
2022-10-11T03:26:37.381Z,67.04
2022-10-11T03:27:37.337Z,64.89
2022-10-11T03:28:37.367Z,67.84
2022-10-11T03:29:37.309Z,65.73
2022-10-11T03:30:37.351Z,66.98
2022-10-11T03:31:37.293Z,68.69
2022-10-11T03:32:37.247Z,69.12
2022-10-11T03:33:37.246Z,67.35
2022-10-11T03:34:37.242Z,68.65
2022-10-11T03:35:37.249Z,65.98
2022-10-11T03:36:37.193Z,68.33
2022-10-11T03:37:37.186Z,66.10
2022-10-11T03:38:37.173Z,68.81
2022-10-11T03:39:37.128Z,66.99
2022-10-11T03:40:37.150Z,67.29
2022-10-11T03:41:37.141Z,67.21
2022-10-11T03:42:37.098Z,69.55
2022-10-11T03:43:37.072Z,68.48
2022-10-11T03:44:37.055Z,68.95
2022-10-11T03:45:37.078Z,68.14
2022-10-11T03:46:37.050Z,68.32
2022-10-11T03:47:36.995Z,68.46
2022-10-11T03:48:37.013Z,68.57
2022-10-11T03:49:41.348Z,68.31
2022-10-11T03:50:39.031Z,67.23
2022-10-11T03:51:36.937Z,69.11
2022-10-11T03:52:36.923Z,67.93
2022-10-11T03:53:36.918Z,68.96
2022-10-11T03:54:36.894Z,67.46
2022-10-11T03:55:36.898Z,67.61
2022-10-11T03:56:36.850Z,66.16
2022-10-11T03:57:36.835Z,68.30
2022-10-11T03:58:36.812Z,68.30
2022-10-11T03:59:36.814Z,68.05
2022-10-11T04:00:36.821Z,67.32
2022-10-11T04:01:36.864Z,69.42
2022-10-11T04:02:39.186Z,67.71
2022-10-11T04:03:37.741Z,65.52
2022-10-11T04:04:36.728Z,67.53
2022-10-11T04:05:36.726Z,66.81
2022-10-11T04:06:36.667Z,64.20
2022-10-11T04:07:36.668Z,66.87
2022-10-11T04:08:36.642Z,66.55
2022-10-11T04:09:36.641Z,68.27
2022-10-11T04:10:36.645Z,68.00
2022-10-11T04:11:36.596Z,66.91
2022-10-11T04:12:36.570Z,68.28
2022-10-11T04:13:36.553Z,68.61
2022-10-11T04:14:36.540Z,66.89
2022-10-11T04:15:36.517Z,67.64
2022-10-11T04:16:36.535Z,67.71
2022-10-11T04:17:36.492Z,67.72
2022-10-11T04:18:36.465Z,67.71
2022-10-11T04:19:36.482Z,69.53
2022-10-11T04:20:36.429Z,70.39
2022-10-11T04:21:36.443Z,69.46
2022-10-11T04:22:36.406Z,70.43
2022-10-11T04:23:36.396Z,69.49
2022-10-11T04:24:36.363Z,71.13
2022-10-11T04:25:36.336Z,70.15
2022-10-11T04:26:37.385Z,69.04
2022-10-11T04:27:36.310Z,69.70
2022-10-11T04:28:36.355Z,71.20
2022-10-11T04:29:36.291Z,71.96
2022-10-11T04:30:36.272Z,70.40
2022-10-11T04:31:36.289Z,68.74
2022-10-11T04:32:36.242Z,70.21
2022-10-11T04:33:36.251Z,70.04
2022-10-11T04:34:36.206Z,69.10
2022-10-11T04:35:36.175Z,69.52
2022-10-11T04:36:36.217Z,69.33
2022-10-11T04:37:36.145Z,70.43
2022-10-11T04:38:36.138Z,69.28
2022-10-11T04:39:36.146Z,70.17
2022-10-11T04:40:36.140Z,70.66
2022-10-11T04:41:36.095Z,70.92
2022-10-11T04:42:36.110Z,69.64
2022-10-11T04:43:36.085Z,70.25
2022-10-11T04:44:36.069Z,69.23
2022-10-11T04:45:36.075Z,69.62
2022-10-11T04:46:36.022Z,68.49
2022-10-11T04:47:35.985Z,68.78
2022-10-11T04:48:35.962Z,66.69
2022-10-11T04:49:35.945Z,68.53
2022-10-11T04:50:35.999Z,68.52
2022-10-11T04:51:35.961Z,68.74
2022-10-11T04:52:35.887Z,69.56
2022-10-11T04:53:35.877Z,67.40
2022-10-11T04:54:35.883Z,68.73
2022-10-11T04:55:35.876Z,68.13
2022-10-11T04:56:35.859Z,69.73
2022-10-11T04:57:35.833Z,69.83
2022-10-11T04:58:35.809Z,69.81
2022-10-11T04:59:35.791Z,69.20
2022-10-11T05:00:35.847Z,68.90
2022-10-11T05:01:35.785Z,69.80
2022-10-11T05:02:35.726Z,70.71
2022-10-11T05:03:35.716Z,70.39
2022-10-11T05:04:35.712Z,67.80
2022-10-11T05:05:35.713Z,69.97
2022-10-11T05:06:36.673Z,68.70
2022-10-11T05:07:35.633Z,69.33
2022-10-11T05:08:35.628Z,69.15
2022-10-11T05:09:35.608Z,69.57
2022-10-11T05:10:35.636Z,69.65
2022-10-11T05:11:35.584Z,68.46
2022-10-11T05:12:35.570Z,69.55
2022-10-11T05:13:35.564Z,67.87
2022-10-11T05:14:35.549Z,69.64
2022-10-11T05:15:35.546Z,65.30
2022-10-11T05:16:35.500Z,67.39
2022-10-11T05:17:35.495Z,69.03
2022-10-11T05:18:35.482Z,69.13
2022-10-11T05:19:35.434Z,69.58
2022-10-11T05:20:35.462Z,68.18
2022-10-11T05:21:35.417Z,68.37
2022-10-11T05:22:35.376Z,68.87
2022-10-11T05:23:35.394Z,67.67
2022-10-11T05:24:35.361Z,69.74
2022-10-11T05:25:35.385Z,68.84
2022-10-11T05:26:35.321Z,66.02
2022-10-11T05:27:35.293Z,69.32
2022-10-11T05:28:35.311Z,68.93
2022-10-11T05:29:35.272Z,68.35
2022-10-11T05:30:35.282Z,68.28
2022-10-11T05:31:35.230Z,68.75
2022-10-11T05:32:35.212Z,68.31
2022-10-11T05:33:35.249Z,67.50
2022-10-11T05:34:35.193Z,67.25
2022-10-11T05:35:35.222Z,67.44
2022-10-11T05:36:35.169Z,67.94
2022-10-11T05:37:35.135Z,68.12
2022-10-11T05:38:35.119Z,66.59
2022-10-11T05:39:35.086Z,69.88
2022-10-11T05:40:35.119Z,68.08
2022-10-11T05:41:35.073Z,67.14
2022-10-11T05:42:35.032Z,65.50
2022-10-11T05:43:35.061Z,69.22
2022-10-11T05:44:35.008Z,66.81
2022-10-11T05:45:34.974Z,65.97
2022-10-11T05:46:35.040Z,67.05
2022-10-11T05:47:34.954Z,67.42
2022-10-11T05:48:34.938Z,69.00
2022-10-11T05:49:34.926Z,67.37
2022-10-11T05:50:34.904Z,66.25
2022-10-11T05:51:34.919Z,68.35
2022-10-11T05:52:34.894Z,67.45
2022-10-11T05:53:34.851Z,66.84
2022-10-11T05:54:35.878Z,67.72
2022-10-11T05:55:34.822Z,66.47
2022-10-11T05:56:34.832Z,67.37
2022-10-11T05:57:34.769Z,67.87
2022-10-11T05:58:34.799Z,66.13
2022-10-11T05:59:34.766Z,69.00
2022-10-11T06:00:34.748Z,67.35
2022-10-11T06:01:34.861Z,66.33
2022-10-11T06:02:34.713Z,68.22
2022-10-11T06:03:34.722Z,66.59
2022-10-11T06:04:34.680Z,65.39
2022-10-11T06:05:34.640Z,68.41
2022-10-11T06:06:34.653Z,66.73
2022-10-11T06:07:34.636Z,65.70
2022-10-11T06:08:34.674Z,65.89
2022-10-11T06:09:34.595Z,65.49
2022-10-11T06:10:34.581Z,65.74
2022-10-11T06:11:34.625Z,65.65
2022-10-11T06:12:34.522Z,67.87
2022-10-11T06:13:34.526Z,67.48
2022-10-11T06:14:34.481Z,67.98
2022-10-11T06:15:34.510Z,67.64
2022-10-11T06:16:34.482Z,67.26
2022-10-11T06:17:34.426Z,66.44
2022-10-11T06:18:34.433Z,65.45
2022-10-11T06:19:34.407Z,66.01
2022-10-11T06:20:34.420Z,65.82
2022-10-11T06:21:34.407Z,67.23
2022-10-11T06:22:34.381Z,68.42
2022-10-11T06:23:34.356Z,67.09
2022-10-11T06:24:34.342Z,67.74
2022-10-11T06:25:34.304Z,67.00
2022-10-11T06:26:34.379Z,66.44
2022-10-11T06:27:34.268Z,66.45
2022-10-11T06:28:34.352Z,68.55
2022-10-11T06:29:34.249Z,67.87
2022-10-11T06:30:34.219Z,67.00
2022-10-11T06:31:34.219Z,66.49
2022-10-11T06:32:34.174Z,68.18
2022-10-11T06:33:34.158Z,66.09
2022-10-11T06:34:34.161Z,66.31
2022-10-11T06:35:34.194Z,65.64
2022-10-11T06:36:34.222Z,69.14
2022-10-11T06:37:34.136Z,66.17
2022-10-11T06:38:34.205Z,67.69
2022-10-11T06:39:34.063Z,67.06
2022-10-11T06:40:34.051Z,68.57
2022-10-11T06:41:34.072Z,66.60
2022-10-11T06:42:33.990Z,67.55
2022-10-11T06:43:33.979Z,66.66
2022-10-11T06:44:33.981Z,66.18
2022-10-11T06:45:33.977Z,65.80
2022-10-11T06:46:33.973Z,67.64
2022-10-11T06:47:33.915Z,68.47
2022-10-11T06:48:33.922Z,66.19
2022-10-11T06:49:33.879Z,68.09
2022-10-11T06:50:57.865Z,65.40
2022-10-11T06:51:35.879Z,69.85
2022-10-11T06:52:33.850Z,65.54
2022-10-11T06:53:33.813Z,67.44
2022-10-11T06:54:33.805Z,65.62
2022-10-11T06:55:33.783Z,66.28
2022-10-11T06:56:33.813Z,69.28
2022-10-11T06:57:33.744Z,68.47
2022-10-11T06:58:33.778Z,68.64
2022-10-11T06:59:33.720Z,66.03
2022-10-11T07:00:33.723Z,67.56
2022-10-11T07:01:33.782Z,68.60
2022-10-11T07:02:33.679Z,67.20
2022-10-11T07:03:33.648Z,68.15
2022-10-11T07:04:33.623Z,63.83
2022-10-11T07:05:33.617Z,68.81
2022-10-11T07:06:33.615Z,68.77
2022-10-11T07:07:33.579Z,66.37
2022-10-11T07:08:33.566Z,67.84
2022-10-11T07:09:33.540Z,68.12
2022-10-11T07:10:33.510Z,68.68
2022-10-11T07:11:33.549Z,67.94
2022-10-11T07:12:33.498Z,67.16
2022-10-11T07:13:33.471Z,66.09
2022-10-11T07:14:33.443Z,67.53
2022-10-11T07:15:33.497Z,68.83
2022-10-11T07:16:33.453Z,66.96
2022-10-11T07:17:33.427Z,66.88
2022-10-11T07:18:33.393Z,67.40
2022-10-11T07:19:33.370Z,66.86
2022-10-11T07:20:33.354Z,66.44
2022-10-11T07:21:33.369Z,65.06
2022-10-11T07:22:33.328Z,65.85
2022-10-11T07:23:33.290Z,67.49
2022-10-11T07:24:33.332Z,66.79
2022-10-11T07:25:33.265Z,67.61
2022-10-11T07:26:38.961Z,68.33
2022-10-11T07:27:35.237Z,68.15
2022-10-11T07:28:33.335Z,66.31
2022-10-11T07:29:33.180Z,67.69
2022-10-11T07:30:33.221Z,68.24
2022-10-11T07:31:33.230Z,67.49
2022-10-11T07:32:33.140Z,67.42
2022-10-11T07:33:33.148Z,68.94
2022-10-11T07:34:33.159Z,67.61
2022-10-11T07:35:33.085Z,66.98
2022-10-11T07:36:33.143Z,66.63
2022-10-11T07:37:33.081Z,66.94
2022-10-11T07:38:33.082Z,67.23
2022-10-11T07:39:33.065Z,66.11
2022-10-11T07:40:33.025Z,68.23
2022-10-11T07:41:33.032Z,67.04
2022-10-11T07:42:32.984Z,69.22
2022-10-11T07:43:32.967Z,68.20
2022-10-11T07:44:32.948Z,67.10
2022-10-11T07:45:32.959Z,66.47
2022-10-11T07:46:32.946Z,68.62
2022-10-11T07:47:32.878Z,66.19
2022-10-11T07:48:32.878Z,68.90
2022-10-11T07:49:32.966Z,67.63
2022-10-11T07:50:32.827Z,68.98
2022-10-11T07:51:32.892Z,67.92
2022-10-11T07:52:32.781Z,65.68
2022-10-11T07:53:32.788Z,69.25
2022-10-11T07:54:32.766Z,69.11
2022-10-11T07:55:32.751Z,66.98
2022-10-11T07:56:32.776Z,67.98
2022-10-11T07:57:32.714Z,68.82
2022-10-11T07:58:32.712Z,65.32
2022-10-11T07:59:32.675Z,69.28
2022-10-11T08:00:32.749Z,68.50
2022-10-11T08:01:32.757Z,68.41
2022-10-11T08:02:32.658Z,69.80
2022-10-11T08:03:32.648Z,67.64
2022-10-11T08:04:32.577Z,66.64
2022-10-11T08:05:32.561Z,66.65
2022-10-11T08:06:32.868Z,66.32
2022-10-11T08:07:32.545Z,64.86
2022-10-11T08:08:32.523Z,68.37
2022-10-11T08:09:32.518Z,66.72
2022-10-11T08:10:32.492Z,66.63
2022-10-11T08:11:32.526Z,68.55
2022-10-11T08:12:32.475Z,68.00
2022-10-11T08:13:32.460Z,68.06
2022-10-11T08:14:32.413Z,68.54
2022-10-11T08:15:32.407Z,66.67
2022-10-11T08:16:32.431Z,64.90
2022-10-11T08:17:32.365Z,67.29
2022-10-11T08:18:32.365Z,65.04
2022-10-11T08:19:32.367Z,67.71
2022-10-11T08:20:32.352Z,67.61
2022-10-11T08:21:32.364Z,67.23
2022-10-11T08:22:32.268Z,69.65
2022-10-11T08:23:32.287Z,67.38
2022-10-11T08:24:37.305Z,68.62
2022-10-11T08:25:34.248Z,67.93
2022-10-11T08:26:32.245Z,68.83
2022-10-11T08:27:32.200Z,67.11
2022-10-11T08:28:32.238Z,68.12
2022-10-11T08:29:32.162Z,68.52
2022-10-11T08:30:32.171Z,66.86
2022-10-11T08:31:32.161Z,68.40
2022-10-11T08:32:32.106Z,67.64
2022-10-11T08:33:32.105Z,66.30
2022-10-11T08:34:32.083Z,65.41
2022-10-11T08:35:32.095Z,67.83
2022-10-11T08:36:32.086Z,68.34
2022-10-11T08:37:32.027Z,65.98
2022-10-11T08:38:32.057Z,67.71
2022-10-11T08:39:32.004Z,67.87
2022-10-11T08:40:35.300Z,66.32
2022-10-11T08:41:33.010Z,66.41
2022-10-11T08:42:31.945Z,66.63
2022-10-11T08:43:31.945Z,66.26
2022-10-11T08:44:51.824Z,66.44
2022-10-11T08:45:33.885Z,66.97
2022-10-11T08:46:31.951Z,66.33
2022-10-11T08:47:31.881Z,67.33
2022-10-11T08:48:31.862Z,65.92
2022-10-11T08:49:31.835Z,68.33
2022-10-11T08:50:31.873Z,67.34
2022-10-11T08:51:31.840Z,66.43
2022-10-11T08:52:31.801Z,67.32
2022-10-11T08:53:31.773Z,65.72
2022-10-11T08:54:31.768Z,66.45
2022-10-11T08:55:31.807Z,66.16
2022-10-11T08:56:31.743Z,66.53
2022-10-11T08:57:31.730Z,66.63
2022-10-11T08:58:31.728Z,66.77
2022-10-11T08:59:31.688Z,67.15
2022-10-11T09:00:31.641Z,67.02
2022-10-11T09:01:31.701Z,68.44
2022-10-11T09:02:49.315Z,68.07
2022-10-11T09:03:33.607Z,68.83
2022-10-11T09:04:31.598Z,68.59
2022-10-11T09:05:31.529Z,67.94
2022-10-11T09:06:31.554Z,66.91
2022-10-11T09:07:31.527Z,64.50
2022-10-11T09:08:31.487Z,67.39
2022-10-11T09:09:31.454Z,66.42
2022-10-11T09:10:31.494Z,67.19
2022-10-11T09:11:31.458Z,68.13
2022-10-11T09:12:34.245Z,67.17
2022-10-11T09:13:32.413Z,66.96
2022-10-11T09:14:31.386Z,66.98
2022-10-11T09:15:31.359Z,67.69
2022-10-11T09:16:31.404Z,66.98
2022-10-11T09:17:31.510Z,67.58
2022-10-11T09:18:31.310Z,65.53
2022-10-11T09:19:31.308Z,65.44
2022-10-11T09:20:31.286Z,69.03
2022-10-11T09:21:31.321Z,65.80
2022-10-11T09:22:31.249Z,67.50
2022-10-11T09:23:31.230Z,68.01
2022-10-11T09:24:31.231Z,67.47
2022-10-11T09:25:31.199Z,66.87
2022-10-11T09:26:31.223Z,67.59
2022-10-11T09:27:50.212Z,66.03
2022-10-11T09:28:33.214Z,67.91
2022-10-11T09:29:31.149Z,67.37
2022-10-11T09:30:31.143Z,66.89
2022-10-11T09:31:31.152Z,69.00
2022-10-11T09:32:31.118Z,66.20
2022-10-11T09:33:31.094Z,66.82
2022-10-11T09:34:31.055Z,65.82
2022-10-11T09:35:31.101Z,65.18
2022-10-11T09:36:31.082Z,67.29
2022-10-11T09:37:31.013Z,68.77
2022-10-11T09:38:31.030Z,67.60
2022-10-11T09:39:31.019Z,67.52
2022-10-11T09:40:30.952Z,66.38
2022-10-11T09:41:31.002Z,66.17
2022-10-11T09:42:30.947Z,66.41
2022-10-11T09:43:30.911Z,65.73
2022-10-11T09:44:30.907Z,68.66
2022-10-11T09:45:30.961Z,65.64
2022-10-11T09:46:30.890Z,67.86
2022-10-11T09:47:30.837Z,66.97
2022-10-11T09:48:30.818Z,67.84
2022-10-11T09:49:44.443Z,66.44
2022-10-11T09:50:32.813Z,67.04
2022-10-11T09:51:30.846Z,65.21
2022-10-11T09:52:30.761Z,67.04
2022-10-11T09:53:30.746Z,67.36
2022-10-11T09:54:30.796Z,67.46
2022-10-11T09:55:31.699Z,63.35
2022-10-11T09:56:30.741Z,63.86
2022-10-11T09:57:30.673Z,66.31
2022-10-11T09:58:30.660Z,65.85
2022-10-11T09:59:30.662Z,66.69
2022-10-11T10:00:30.627Z,65.45
2022-10-11T10:01:30.692Z,64.52
2022-10-11T10:02:30.603Z,67.13
2022-10-11T10:03:30.562Z,65.38
2022-10-11T10:04:30.576Z,65.16
2022-10-11T10:05:30.552Z,66.85
2022-10-11T10:06:30.577Z,66.82
2022-10-11T10:07:30.538Z,67.24
2022-10-11T10:08:30.489Z,66.37
2022-10-11T10:09:30.471Z,66.15
2022-10-11T10:10:30.459Z,66.53
2022-10-11T10:11:30.462Z,67.43
2022-10-11T10:12:30.420Z,65.94
2022-10-11T10:13:30.422Z,65.25
2022-10-11T10:14:30.381Z,65.49
2022-10-11T10:15:30.369Z,64.99
2022-10-11T10:16:30.428Z,67.40
2022-10-11T10:17:30.318Z,66.84
2022-10-11T10:18:30.363Z,66.17
2022-10-11T10:19:30.305Z,67.59
2022-10-11T10:20:30.320Z,64.81
2022-10-11T10:21:30.314Z,68.14
2022-10-11T10:22:30.293Z,67.41
2022-10-11T10:23:30.249Z,64.47
2022-10-11T10:24:30.247Z,67.34
2022-10-11T10:25:30.225Z,65.23
2022-10-11T10:26:30.207Z,67.11
2022-10-11T10:27:30.194Z,65.70
2022-10-11T10:28:30.179Z,65.14
2022-10-11T10:29:30.114Z,66.55
2022-10-11T10:30:35.252Z,66.33
2022-10-11T10:31:44.178Z,65.76
2022-10-11T10:32:31.111Z,65.05
2022-10-11T10:33:30.074Z,65.48
2022-10-11T10:34:30.084Z,66.91
2022-10-11T10:35:30.013Z,66.62
2022-10-11T10:36:30.038Z,66.57
2022-10-11T10:37:29.988Z,66.91
2022-10-11T10:38:30.021Z,66.14
2022-10-11T10:39:29.958Z,65.37
2022-10-11T10:40:29.925Z,65.47
2022-10-11T10:41:29.985Z,65.50
2022-10-11T10:42:29.897Z,66.75
2022-10-11T10:43:29.904Z,64.76
2022-10-11T10:44:29.866Z,66.80
2022-10-11T10:45:29.878Z,63.45
2022-10-11T10:46:29.894Z,64.91
2022-10-11T10:47:29.934Z,66.21
2022-10-11T10:48:41.722Z,66.02
2022-10-11T10:50:31.786Z,66.94
2022-10-11T10:51:29.881Z,66.51
2022-10-11T10:52:29.751Z,66.17
2022-10-11T10:53:29.736Z,66.77
2022-10-11T10:54:29.735Z,66.48
2022-10-11T10:55:29.704Z,68.04
2022-10-11T10:56:29.729Z,67.26
2022-10-11T10:57:29.686Z,67.52
2022-10-11T10:58:29.646Z,65.97
2022-10-11T10:59:30.325Z,64.99
2022-10-11T11:00:29.643Z,67.48
2022-10-11T11:01:29.694Z,65.78
2022-10-11T11:02:40.228Z,66.24
2022-10-11T11:03:31.580Z,66.57
2022-10-11T11:04:29.559Z,65.49
2022-10-11T11:05:29.531Z,68.43
2022-10-11T11:06:32.825Z,66.33
2022-10-11T11:07:30.535Z,66.05
2022-10-11T11:08:29.490Z,66.56
2022-10-11T11:09:29.466Z,67.14
2022-10-11T11:10:29.424Z,66.68
2022-10-11T11:11:29.473Z,66.50
2022-10-11T11:12:29.413Z,65.86
2022-10-11T11:13:29.429Z,65.19
2022-10-11T11:14:29.423Z,65.94
2022-10-11T11:15:32.655Z,69.28
2022-10-11T11:16:31.418Z,68.79
2022-10-11T11:17:29.320Z,68.10
2022-10-11T11:18:29.310Z,68.34
2022-10-11T11:19:29.282Z,68.01
2022-10-11T11:20:29.296Z,68.15
2022-10-11T11:21:29.283Z,67.86
2022-10-11T11:22:32.729Z,67.67
2022-10-11T11:23:30.240Z,66.77
2022-10-11T11:24:29.197Z,68.26
2022-10-11T11:25:29.198Z,67.16
2022-10-11T11:26:29.206Z,68.03
2022-10-11T11:27:29.144Z,69.25
2022-10-11T11:28:29.138Z,66.95
2022-10-11T11:29:29.097Z,67.41
2022-10-11T11:30:29.094Z,66.47
2022-10-11T11:31:29.114Z,67.39
2022-10-11T11:32:29.058Z,66.84
2022-10-11T11:33:29.058Z,66.77
2022-10-11T11:34:29.032Z,65.26
2022-10-11T11:35:29.003Z,65.81
2022-10-11T11:36:29.038Z,65.28
2022-10-11T11:37:29.012Z,67.35
2022-10-11T11:38:29.881Z,67.63
2022-10-11T11:39:29.977Z,64.75
2022-10-11T11:40:28.922Z,65.58
2022-10-11T11:41:28.905Z,66.40
2022-10-11T11:42:28.932Z,66.53
2022-10-11T11:43:28.868Z,66.07
2022-10-11T11:44:28.881Z,68.01
2022-10-11T11:45:28.835Z,66.39
2022-10-11T11:46:28.838Z,66.75
2022-10-11T11:47:28.850Z,67.93
2022-10-11T11:48:28.809Z,67.30
2022-10-11T11:49:28.832Z,67.18
2022-10-11T11:50:30.506Z,67.77
2022-10-11T11:51:30.652Z,67.43
2022-10-11T11:52:28.783Z,66.19
2022-10-11T11:53:28.708Z,66.27
2022-10-11T11:54:28.707Z,66.61
2022-10-11T11:55:28.690Z,67.93
2022-10-11T11:56:28.658Z,65.59
2022-10-11T11:57:28.708Z,68.59
2022-10-11T11:58:28.655Z,65.88
2022-10-11T11:59:28.642Z,67.80
2022-10-11T12:00:28.628Z,67.19
2022-10-11T12:01:31.312Z,66.81
2022-10-11T12:02:29.620Z,68.12
2022-10-11T12:03:28.526Z,67.64
2022-10-11T12:04:28.588Z,66.76
2022-10-11T12:05:28.511Z,67.32
2022-10-11T12:06:28.560Z,67.77
2022-10-11T12:07:28.523Z,66.81
2022-10-11T12:08:28.454Z,68.78
2022-10-11T12:09:28.466Z,68.17
2022-10-11T12:10:28.428Z,65.74
2022-10-11T12:11:31.777Z,67.69
2022-10-11T12:12:30.487Z,69.39
2022-10-11T12:13:32.243Z,68.40
2022-10-11T12:14:29.413Z,69.15
2022-10-11T12:15:28.348Z,67.61
2022-10-11T12:16:28.324Z,68.78
2022-10-11T12:17:28.332Z,68.98
2022-10-11T12:18:28.335Z,70.01
2022-10-11T12:19:28.287Z,70.33
2022-10-11T12:20:28.278Z,69.86
2022-10-11T12:21:28.264Z,68.71
2022-10-11T12:22:28.267Z,69.55
2022-10-11T12:23:28.235Z,67.04
2022-10-11T12:24:28.194Z,69.84
2022-10-11T12:25:28.208Z,68.34
2022-10-11T12:26:28.181Z,68.31
2022-10-11T12:27:28.196Z,66.97
2022-10-11T12:28:28.211Z,67.68
2022-10-11T12:29:29.257Z,69.36
2022-10-11T12:30:29.157Z,68.69
2022-10-11T12:31:28.071Z,66.73
2022-10-11T12:32:28.107Z,66.39
2022-10-11T12:33:28.091Z,66.77
2022-10-11T12:34:28.095Z,68.43
2022-10-11T12:35:28.080Z,67.13
2022-10-11T12:36:28.025Z,66.97
2022-10-11T12:37:28.019Z,66.26
2022-10-11T12:38:27.980Z,67.50
2022-10-11T12:39:27.951Z,65.62
2022-10-11T12:40:27.945Z,67.41
2022-10-11T12:41:27.957Z,66.98
2022-10-11T12:42:27.971Z,65.40
2022-10-11T12:43:27.897Z,67.05
2022-10-11T12:44:27.858Z,69.54
2022-10-11T12:45:27.864Z,67.02
2022-10-11T12:46:27.846Z,68.41
2022-10-11T12:47:27.854Z,68.88
2022-10-11T12:48:33.230Z,65.84
2022-10-11T12:49:29.836Z,68.32
2022-10-11T12:50:27.788Z,68.84
2022-10-11T12:51:27.743Z,67.77
2022-10-11T12:52:27.776Z,66.26
2022-10-11T12:53:27.709Z,67.69